Time;durP1;ratioP1;P1;durP2;ratioP2;P2;SDS_P1;SDS_P2;PMS_P1;PMS_P2;Temp;Humidity;BMP_temperature;BMP_pressure;BME280_temperature;BME280_humidity;BME280_pressure;Samples;Min_cycle;Max_cycle;Signal;HPM_P1;HPM_P2
2023/06/06 00:01:56;;;;;;;;;;;13.20;99.90;;;;;;5083743;28;19924;-72
2023/06/06 00:04:21;;;;;;;;;;;13.20;99.90;;;;;;5107306;28;20502;-71
2023/06/06 00:06:47;;;;;;;;;;;13.20;99.90;;;;;;5107995;28;19931;-71
2023/06/06 00:09:13;;;;;;;;;;;13.20;99.90;;;;;;5107864;28;19927;-72
2023/06/06 00:11:44;;;;;;;;;;;13.20;99.90;;;;;;5107380;28;19965;-72
2023/06/06 00:14:12;;;;;;;;;;;13.20;99.90;;;;;;5106981;28;19926;-72
2023/06/06 00:16:37;;;;;;;;;;;13.20;99.90;;;;;;5106240;28;19920;-72
2023/06/06 00:19:03;;;;;;;;;;;13.20;99.90;;;;;;5094483;28;19930;-71
2023/06/06 00:21:32;;;;;;;;;;;13.20;99.90;;;;;;5106552;28;19927;-71
2023/06/06 00:24:01;;;;;;;;;;;13.20;99.90;;;;;;5078753;28;19920;-72
2023/06/06 00:26:27;;;;;;;;;;;13.10;99.90;;;;;;5108675;28;20377;-71
2023/06/06 00:28:53;;;;;;;;;;;13.10;99.90;;;;;;5109288;28;20336;-72
2023/06/06 00:31:19;;;;;;;;;;;13.10;99.90;;;;;;5095996;28;20671;-71
2023/06/06 00:33:44;;;;;;;;;;;13.00;99.90;;;;;;5109648;28;19920;-71
2023/06/06 00:36:10;;;;;;;;;;;13.00;99.90;;;;;;5105826;28;19926;-71
2023/06/06 00:38:36;;;;;;;;;;;13.00;99.90;;;;;;5108541;28;20604;-71
2023/06/06 00:41:01;;;;;;;;;;;13.00;99.90;;;;;;5105262;28;19962;-71
2023/06/06 00:43:27;;;;;;;;;;;13.00;99.90;;;;;;5096510;28;19960;-71
2023/06/06 00:45:53;;;;;;;;;;;13.00;99.90;;;;;;5106867;28;19970;-71
2023/06/06 00:48:18;;;;;;;;;;;12.90;99.90;;;;;;5105478;28;20013;-72
2023/06/06 00:50:47;;;;;;;;;;;12.90;99.90;;;;;;5106602;28;19947;-72
2023/06/06 00:53:13;;;;;;;;;;;12.90;99.90;;;;;;5105955;28;19926;-71
2023/06/06 00:55:39;;;;;;;;;;;12.90;99.90;;;;;;5105627;28;19926;-71
2023/06/06 00:58:06;;;;;;;;;;;12.80;99.90;;;;;;5101821;28;20007;-71
2023/06/06 01:00:35;;;;;;;;;;;12.80;99.90;;;;;;5094402;28;19920;-71
2023/06/06 01:03:03;;;;;;;;;;;12.80;99.90;;;;;;5101309;28;20016;-71
2023/06/06 01:05:29;;;;;;;;;;;12.70;99.90;;;;;;5107749;27;20332;-72
2023/06/06 01:07:56;;;;;;;;;;;12.70;99.90;;;;;;5083455;28;19920;-71
2023/06/06 01:10:22;;;;;;;;;;;12.80;99.90;;;;;;5092335;28;20003;-72
2023/06/06 01:13:06;;;;;;;;;;;12.80;99.90;;;;;;5083544;28;19920;-72
2023/06/06 01:15:43;;;;;;;;;;;12.70;99.90;;;;;;5092339;28;19924;-71
2023/06/06 01:18:11;;;;;;;;;;;12.70;99.90;;;;;;5106742;28;20015;-71
2023/06/06 01:20:38;;;;;;;;;;;12.70;99.90;;;;;;5102255;28;20267;-72
2023/06/06 01:23:03;;;;;;;;;;;12.70;99.90;;;;;;5109408;28;20416;-71
2023/06/06 01:25:29;;;;;;;;;;;12.70;99.90;;;;;;5110848;28;19923;-71
2023/06/06 01:27:55;;;;;;;;;;;12.70;99.90;;;;;;5083726;28;19926;-71
2023/06/06 01:30:25;;;;;;;;;;;12.60;99.90;;;;;;5109610;28;19920;-71
2023/06/06 01:33:06;;;;;;;;;;;12.70;99.90;;;;;;5109147;28;19965;-71
2023/06/06 01:35:40;;;;;;;;;;;12.70;99.90;;;;;;5095706;28;19927;-72
2023/06/06 01:38:14;;;;;;;;;;;12.70;99.90;;;;;;5105641;28;19999;-72
2023/06/06 01:40:40;;;;;;;;;;;12.60;99.90;;;;;;5110288;28;20721;-71
2023/06/06 01:43:08;;;;;;;;;;;12.70;99.90;;;;;;5107380;28;19943;-71
2023/06/06 01:45:34;;;;;;;;;;;12.60;99.90;;;;;;5092365;28;19920;-72
2023/06/06 01:47:59;;;;;;;;;;;12.60;99.90;;;;;;5102729;28;20326;-71
2023/06/06 01:50:25;;;;;;;;;;;12.60;99.90;;;;;;5107370;28;20006;-71
2023/06/06 01:52:54;;;;;;;;;;;12.60;99.90;;;;;;5109653;28;19923;-72
2023/06/06 01:55:20;;;;;;;;;;;12.60;99.90;;;;;;5108643;28;19919;-72
2023/06/06 01:57:46;;;;;;;;;;;12.60;99.90;;;;;;5109424;28;20323;-71
2023/06/06 02:00:12;;;;;;;;;;;12.60;99.90;;;;;;5108934;27;19920;-71
2023/06/06 02:02:38;;;;;;;;;;;12.60;99.90;;;;;;5110438;28;20413;-71
2023/06/06 02:05:04;;;;;;;;;;;12.60;99.90;;;;;;5107508;28;19999;-71
2023/06/06 02:07:30;;;;;;;;;;;12.60;99.90;;;;;;5109587;28;19959;-71
2023/06/06 02:09:56;;;;;;;;;;;12.60;99.90;;;;;;5105474;28;20002;-71
2023/06/06 02:12:21;;;;;;;;;;;12.60;99.90;;;;;;5109719;28;20442;-71
2023/06/06 02:14:48;;;;;;;;;;;12.60;99.90;;;;;;5094241;28;19970;-71
2023/06/06 02:17:13;;;;;;;;;;;12.60;99.90;;;;;;5108132;28;19998;-72
2023/06/06 02:19:39;;;;;;;;;;;12.50;99.90;;;;;;5104017;28;20026;-71
2023/06/06 02:22:05;;;;;;;;;;;12.60;99.90;;;;;;5099908;28;19924;-71
2023/06/06 02:24:32;;;;;;;;;;;12.60;99.90;;;;;;5105300;28;19980;-71
2023/06/06 02:26:58;;;;;;;;;;;12.60;99.90;;;;;;5100120;27;19955;-71
2023/06/06 02:29:24;;;;;;;;;;;12.60;99.90;;;;;;5090777;28;19959;-71
2023/06/06 02:31:50;;;;;;;;;;;12.50;99.90;;;;;;5100582;28;20010;-71
2023/06/06 02:34:16;;;;;;;;;;;12.60;99.90;;;;;;5087322;28;20007;-71
2023/06/06 02:36:41;;;;;;;;;;;12.60;99.90;;;;;;5097727;28;20006;-71
2023/06/06 02:39:07;;;;;;;;;;;12.60;99.90;;;;;;5104631;28;20441;-71
2023/06/06 02:41:33;;;;;;;;;;;12.60;99.90;;;;;;5107085;28;19923;-71
2023/06/06 02:43:59;;;;;;;;;;;12.60;99.90;;;;;;5105136;28;20374;-72
2023/06/06 02:46:24;;;;;;;;;;;12.60;99.90;;;;;;5095721;28;20392;-72
2023/06/06 02:48:50;;;;;;;;;;;12.50;99.90;;;;;;5099602;28;20002;-72
2023/06/06 02:51:16;;;;;;;;;;;12.60;99.90;;;;;;5090579;28;20288;-71
2023/06/06 02:53:43;;;;;;;;;;;12.60;99.90;;;;;;5098489;28;19920;-71
2023/06/06 02:56:08;;;;;;;;;;;12.60;99.90;;;;;;5105660;28;19920;-71
2023/06/06 02:58:34;;;;;;;;;;;12.50;99.90;;;;;;5099634;28;20305;-71
2023/06/06 03:01:03;;;;;;;;;;;12.50;99.90;;;;;;5104351;28;19926;-71
2023/06/06 03:03:29;;;;;;;;;;;12.50;99.90;;;;;;5096288;28;19973;-71
2023/06/06 03:05:56;;;;;;;;;;;12.50;99.90;;;;;;5103517;28;19920;-71
2023/06/06 03:08:22;;;;;;;;;;;12.50;99.90;;;;;;5097882;28;20002;-71
2023/06/06 03:10:48;;;;;;;;;;;12.50;99.90;;;;;;5095709;28;20686;-71
2023/06/06 03:13:14;;;;;;;;;;;12.50;99.90;;;;;;5096940;28;19959;-71
2023/06/06 03:15:40;;;;;;;;;;;12.50;99.90;;;;;;5088981;28;19973;-71
2023/06/06 03:18:09;;;;;;;;;;;12.50;99.90;;;;;;5090253;28;19920;-72
2023/06/06 03:20:40;;;;;;;;;;;12.50;99.90;;;;;;5103333;28;19920;-71
2023/06/06 03:23:10;;;;;;;;;;;12.50;99.90;;;;;;5096619;28;19927;-72
2023/06/06 03:25:36;;;;;;;;;;;12.50;99.90;;;;;;5102145;28;19981;-72
2023/06/06 03:28:02;;;;;;;;;;;12.50;99.90;;;;;;5097661;28;20011;-72
2023/06/06 03:30:28;;;;;;;;;;;12.50;99.90;;;;;;5103107;28;20003;-72
2023/06/06 03:32:55;;;;;;;;;;;12.50;99.90;;;;;;5097774;28;19924;-71
2023/06/06 03:35:21;;;;;;;;;;;12.50;99.90;;;;;;5101199;28;19920;-72
2023/06/06 03:37:47;;;;;;;;;;;12.50;99.90;;;;;;5097252;28;19920;-71
2023/06/06 03:40:13;;;;;;;;;;;12.60;99.90;;;;;;5100323;28;19923;-72
2023/06/06 03:42:38;;;;;;;;;;;12.50;99.90;;;;;;5089210;28;19960;-72
2023/06/06 03:45:04;;;;;;;;;;;12.50;99.90;;;;;;5094071;28;20301;-71
2023/06/06 03:47:30;;;;;;;;;;;12.60;99.90;;;;;;5092462;28;19942;-72
2023/06/06 03:49:55;;;;;;;;;;;12.60;99.90;;;;;;5097503;28;19920;-72
2023/06/06 03:52:21;;;;;;;;;;;12.50;99.90;;;;;;5075790;28;19973;-71
2023/06/06 03:54:47;;;;;;;;;;;12.50;99.90;;;;;;5075015;28;19920;-72
2023/06/06 03:57:12;;;;;;;;;;;12.50;99.90;;;;;;5092195;28;19920;-72
2023/06/06 03:59:39;;;;;;;;;;;12.60;99.90;;;;;;5092448;28;19927;-72
2023/06/06 04:02:04;;;;;;;;;;;12.60;99.90;;;;;;5089833;28;20019;-72
2023/06/06 04:04:30;;;;;;;;;;;12.60;99.90;;;;;;5094190;28;19978;-72
2023/06/06 04:06:56;;;;;;;;;;;12.70;99.90;;;;;;5089904;28;19920;-71
2023/06/06 04:09:22;;;;;;;;;;;12.70;99.90;;;;;;5094857;28;19920;-72
2023/06/06 04:11:47;;;;;;;;;;;12.70;99.90;;;;;;5091357;28;19924;-71
2023/06/06 04:14:13;;;;;;;;;;;12.60;99.90;;;;;;5092403;28;19927;-71
2023/06/06 04:16:40;;;;;;;;;;;12.70;99.90;;;;;;5090358;28;19945;-72
2023/06/06 04:19:06;;;;;;;;;;;12.60;99.90;;;;;;5089492;28;19924;-71
2023/06/06 04:21:32;;;;;;;;;;;12.60;99.90;;;;;;5105300;28;19920;-71
2023/06/06 04:23:57;;;;;;;;;;;12.60;99.90;;;;;;5095283;28;19920;-71
2023/06/06 04:26:24;;;;;;;;;;;12.60;99.90;;;;;;5107792;28;19924;-72
2023/06/06 04:28:52;;;;;;;;;;;12.60;99.90;;;;;;5108641;28;19964;-72
2023/06/06 04:31:18;;;;;;;;;;;12.60;99.90;;;;;;5105444;28;19919;-72
2023/06/06 04:33:44;;;;;;;;;;;12.60;99.90;;;;;;5105832;28;20024;-71
2023/06/06 04:36:11;;;;;;;;;;;12.60;99.90;;;;;;5099247;28;20392;-72
2023/06/06 04:38:37;;;;;;;;;;;12.60;99.90;;;;;;5099802;28;20014;-72
2023/06/06 04:41:02;;;;;;;;;;;12.60;99.90;;;;;;5104465;28;20044;-72
2023/06/06 04:43:28;;;;;;;;;;;12.60;99.90;;;;;;5106410;28;19927;-71
2023/06/06 04:45:57;;;;;;;;;;;12.70;99.90;;;;;;5104914;28;19920;-72
2023/06/06 04:48:25;;;;;;;;;;;12.70;99.90;;;;;;5106001;28;19926;-72
2023/06/06 04:50:52;;;;;;;;;;;12.70;99.90;;;;;;5104829;28;19971;-72
2023/06/06 04:53:19;;;;;;;;;;;12.70;99.90;;;;;;5104851;28;20415;-71
2023/06/06 04:55:46;;;;;;;;;;;12.80;99.90;;;;;;5105510;28;19942;-72
2023/06/06 04:58:14;;;;;;;;;;;12.70;99.90;;;;;;5103977;28;19920;-71
2023/06/06 05:00:42;;;;;;;;;;;12.80;99.90;;;;;;5105636;28;19920;-71
2023/06/06 05:03:07;;;;;;;;;;;12.80;99.90;;;;;;5104920;28;19923;-72
2023/06/06 05:05:33;;;;;;;;;;;12.80;99.90;;;;;;5105632;28;20415;-72
2023/06/06 05:07:59;;;;;;;;;;;12.80;99.90;;;;;;5104116;28;19919;-72
2023/06/06 05:10:24;;;;;;;;;;;12.80;99.90;;;;;;5101010;28;19923;-72
2023/06/06 05:12:49;;;;;;;;;;;12.80;99.90;;;;;;5103452;28;19919;-72
2023/06/06 05:15:15;;;;;;;;;;;12.90;99.90;;;;;;5108172;28;20378;-69
2023/06/06 05:17:54;;;;;;;;;;;12.90;99.90;;;;;;5107538;28;19919;-70
2023/06/06 05:20:21;;;;;;;;;;;13.00;99.90;;;;;;5092544;28;19920;-69
2023/06/06 05:22:47;;;;;;;;;;;13.00;99.90;;;;;;5101941;28;19934;-71
2023/06/06 05:25:12;;;;;;;;;;;13.00;99.90;;;;;;5089662;28;20372;-71
2023/06/06 05:27:38;;;;;;;;;;;13.00;99.90;;;;;;5107396;28;19920;-72
2023/06/06 05:30:04;;;;;;;;;;;13.00;99.90;;;;;;5093825;28;19981;-72
2023/06/06 05:32:29;;;;;;;;;;;13.10;99.90;;;;;;5107960;28;20451;-72
2023/06/06 05:34:55;;;;;;;;;;;13.10;99.90;;;;;;5109090;28;20041;-72
2023/06/06 05:37:20;;;;;;;;;;;13.00;99.90;;;;;;5094913;28;19973;-72
2023/06/06 05:39:46;;;;;;;;;;;13.10;99.90;;;;;;5110642;28;19929;-72
2023/06/06 05:42:11;;;;;;;;;;;13.10;99.90;;;;;;5107630;28;19920;-72
2023/06/06 05:44:37;;;;;;;;;;;13.10;99.90;;;;;;5109528;28;19995;-72
2023/06/06 05:47:03;;;;;;;;;;;13.20;99.90;;;;;;5104527;28;19924;-72
2023/06/06 05:49:29;;;;;;;;;;;13.20;99.90;;;;;;5109206;28;19926;-72
2023/06/06 05:51:54;;;;;;;;;;;13.20;99.90;;;;;;5105008;28;19927;-72
2023/06/06 05:54:20;;;;;;;;;;;13.30;99.90;;;;;;5108710;28;19965;-72
2023/06/06 05:56:45;;;;;;;;;;;13.30;99.90;;;;;;5105487;27;20420;-72
2023/06/06 05:59:11;;;;;;;;;;;13.40;99.90;;;;;;5109030;27;19920;-72
2023/06/06 06:01:39;;;;;;;;;;;13.40;99.90;;;;;;5104676;28;19920;-72
2023/06/06 06:04:06;;;;;;;;;;;13.40;99.90;;;;;;5096701;28;19920;-72
2023/06/06 06:06:31;;;;;;;;;;;13.40;99.90;;;;;;5104239;28;20408;-72
2023/06/06 06:08:57;;;;;;;;;;;13.40;99.90;;;;;;5096349;28;19920;-72
2023/06/06 06:11:23;;;;;;;;;;;13.30;99.90;;;;;;5099315;28;19924;-72
2023/06/06 06:13:48;;;;;;;;;;;13.30;99.90;;;;;;5106711;28;19931;-72
2023/06/06 06:16:14;;;;;;;;;;;13.40;99.90;;;;;;5092863;28;20298;-72
2023/06/06 06:18:40;;;;;;;;;;;13.40;99.90;;;;;;5101536;28;19927;-72
2023/06/06 06:21:05;;;;;;;;;;;13.40;99.90;;;;;;5104153;28;19920;-72
2023/06/06 06:23:31;;;;;;;;;;;13.40;99.90;;;;;;5110484;28;20056;-72
2023/06/06 06:25:56;;;;;;;;;;;13.50;99.90;;;;;;5109505;28;20298;-72
2023/06/06 06:28:23;;;;;;;;;;;13.50;99.90;;;;;;5109181;28;19923;-73
2023/06/06 06:30:49;;;;;;;;;;;13.60;99.90;;;;;;5107528;28;19977;-72
2023/06/06 06:33:15;;;;;;;;;;;13.60;99.90;;;;;;5108025;28;19920;-72
2023/06/06 06:35:41;;;;;;;;;;;13.60;99.90;;;;;;5105278;28;20289;-72
2023/06/06 06:38:07;;;;;;;;;;;13.70;99.90;;;;;;5108365;28;19919;-72
2023/06/06 06:40:32;;;;;;;;;;;13.70;99.90;;;;;;5104582;28;19924;-72
2023/06/06 06:42:58;;;;;;;;;;;13.70;99.90;;;;;;5107710;28;19926;-72
2023/06/06 06:45:24;;;;;;;;;;;13.80;99.90;;;;;;5104021;28;19927;-72
2023/06/06 06:47:49;;;;;;;;;;;13.90;99.90;;;;;;5090184;28;19920;-72
2023/06/06 06:50:15;;;;;;;;;;;14.00;99.90;;;;;;5104259;28;19970;-72
2023/06/06 06:52:41;;;;;;;;;;;14.00;99.90;;;;;;5107837;28;19954;-72
2023/06/06 06:55:07;;;;;;;;;;;14.20;99.90;;;;;;5102758;28;19926;-72
2023/06/06 06:57:33;;;;;;;;;;;14.20;99.90;;;;;;5100288;28;19920;-72
2023/06/06 06:59:59;;;;;;;;;;;14.30;99.90;;;;;;5099548;28;19978;-72
2023/06/06 07:02:29;;;;;;;;;;;14.30;99.90;;;;;;5105043;28;19923;-73
2023/06/06 07:04:57;;;;;;;;;;;14.40;99.90;;;;;;5101305;28;19920;-72
2023/06/06 07:07:23;;;;;;;;;;;14.40;99.90;;;;;;5088909;28;19962;-73
2023/06/06 07:09:48;;;;;;;;;;;14.50;99.90;;;;;;5099895;28;20500;-72
2023/06/06 07:12:14;;;;;;;;;;;14.50;99.90;;;;;;5096925;28;19965;-72
2023/06/06 07:14:40;;;;;;;;;;;14.60;99.90;;;;;;5099536;28;19920;-72
2023/06/06 07:17:07;;;;;;;;;;;14.70;99.90;;;;;;5103584;28;20521;-72
2023/06/06 07:19:35;;;;;;;;;;;14.80;99.90;;;;;;5094505;28;19962;-72
2023/06/06 07:22:02;;;;;;;;;;;14.90;99.90;;;;;;5109761;28;19927;-72
2023/06/06 07:24:28;;;;;;;;;;;15.00;99.90;;;;;;5089306;28;20381;-72
2023/06/06 07:26:54;;;;;;;;;;;15.10;99.90;;;;;;5099241;28;20339;-73
2023/06/06 07:29:21;;;;;;;;;;;15.00;99.90;;;;;;5104383;28;20076;-72
2023/06/06 07:31:47;;;;;;;;;;;15.00;99.90;;;;;;5107472;28;20014;-72
2023/06/06 07:34:12;;;;;;;;;;;14.90;99.90;;;;;;5105859;28;20006;-72
2023/06/06 07:36:38;;;;;;;;;;;14.80;99.90;;;;;;5090902;28;19920;-72
2023/06/06 07:39:03;;;;;;;;;;;14.80;99.90;;;;;;5107417;28;20425;-72
2023/06/06 07:41:30;;;;;;;;;;;14.80;99.90;;;;;;5108010;28;20266;-72
2023/06/06 07:43:55;;;;;;;;;;;14.80;99.90;;;;;;5106601;28;19920;-72
2023/06/06 07:46:21;;;;;;;;;;;14.90;99.90;;;;;;5108135;28;20341;-72
2023/06/06 07:48:46;;;;;;;;;;;15.00;99.90;;;;;;5104039;28;20438;-72
2023/06/06 07:51:12;;;;;;;;;;;15.00;99.90;;;;;;5107503;28;19924;-72
2023/06/06 07:53:37;;;;;;;;;;;15.00;99.90;;;;;;5105034;28;19926;-72
2023/06/06 07:56:03;;;;;;;;;;;15.10;99.90;;;;;;5108176;28;19924;-73
2023/06/06 07:58:39;;;;;;;;;;;15.20;99.90;;;;;;5105288;28;19920;-72
2023/06/06 08:01:05;;;;;;;;;;;15.30;99.90;;;;;;5106507;28;20293;-72
2023/06/06 08:03:30;;;;;;;;;;;15.40;99.90;;;;;;5092666;28;19923;-72
2023/06/06 08:05:56;;;;;;;;;;;15.50;99.90;;;;;;5106109;28;20370;-72
2023/06/06 08:08:21;;;;;;;;;;;15.70;99.90;;;;;;5103910;28;19927;-72
2023/06/06 08:10:47;;;;;;;;;;;15.70;99.90;;;;;;5106908;28;19919;-72
2023/06/06 08:13:14;;;;;;;;;;;15.60;99.90;;;;;;5103892;28;19927;-73
2023/06/06 08:15:39;;;;;;;;;;;15.60;99.90;;;;;;5107366;28;20406;-73
2023/06/06 08:18:05;;;;;;;;;;;15.60;99.90;;;;;;5100376;28;19927;-72
2023/06/06 08:20:30;;;;;;;;;;;15.60;99.90;;;;;;5098962;28;19927;-72
2023/06/06 08:22:56;;;;;;;;;;;15.50;99.90;;;;;;5108081;28;19920;-72
2023/06/06 08:25:21;;;;;;;;;;;15.60;99.90;;;;;;5108771;28;20693;-72
2023/06/06 08:27:47;;;;;;;;;;;15.60;99.90;;;;;;5107464;28;19963;-72
2023/06/06 08:30:12;;;;;;;;;;;15.60;99.90;;;;;;5090266;28;20018;-72
2023/06/06 08:32:38;;;;;;;;;;;15.70;99.90;;;;;;5105625;28;19919;-73
2023/06/06 08:35:04;;;;;;;;;;;15.70;99.90;;;;;;5108823;28;19943;-73
2023/06/06 08:37:30;;;;;;;;;;;15.70;99.90;;;;;;5107072;28;19919;-73
2023/06/06 08:39:56;;;;;;;;;;;15.70;99.90;;;;;;5107546;28;19919;-73
2023/06/06 08:42:22;;;;;;;;;;;15.80;99.90;;;;;;5107064;28;19927;-72
2023/06/06 08:44:52;;;;;;;;;;;15.90;99.90;;;;;;5108121;28;19924;-73
2023/06/06 08:47:19;;;;;;;;;;;15.90;99.90;;;;;;5090246;28;19920;-72
2023/06/06 08:49:45;;;;;;;;;;;15.90;99.90;;;;;;5100613;28;19980;-72
2023/06/06 08:52:11;;;;;;;;;;;15.90;99.90;;;;;;5106335;28;19923;-73
2023/06/06 08:54:37;;;;;;;;;;;16.10;99.90;;;;;;5099351;28;19927;-73
2023/06/06 08:57:08;;;;;;;;;;;16.10;99.90;;;;;;5105358;28;20309;-72
2023/06/06 08:59:40;;;;;;;;;;;16.20;99.90;;;;;;5091521;28;19931;-72
2023/06/06 09:02:06;;;;;;;;;;;16.10;99.90;;;;;;5106780;28;19920;-72
2023/06/06 09:04:34;;;;;;;;;;;16.20;99.90;;;;;;5108152;27;19927;-72
2023/06/06 09:07:02;;;;;;;;;;;16.20;99.90;;;;;;5104736;28;20408;-72
2023/06/06 09:09:28;;;;;;;;;;;16.20;99.90;;;;;;5079538;28;19920;-72
2023/06/06 09:11:54;;;;;;;;;;;16.30;99.90;;;;;;5104467;28;19927;-72
2023/06/06 09:14:19;;;;;;;;;;;16.40;99.90;;;;;;5105150;28;19919;-72
2023/06/06 09:16:45;;;;;;;;;;;16.40;99.90;;;;;;5099153;28;19920;-72
2023/06/06 09:19:11;;;;;;;;;;;16.40;99.90;;;;;;5092115;28;19919;-73
2023/06/06 09:21:36;;;;;;;;;;;16.50;99.90;;;;;;5105311;28;19965;-72
2023/06/06 09:24:02;;;;;;;;;;;16.50;99.90;;;;;;5105265;28;20018;-72
2023/06/06 09:26:28;;;;;;;;;;;16.60;99.90;;;;;;5111113;28;19977;-73
2023/06/06 09:28:54;;;;;;;;;;;16.60;99.90;;;;;;5109570;28;19955;-73
2023/06/06 09:31:21;;;;;;;;;;;16.70;99.90;;;;;;5109388;28;20438;-73
2023/06/06 09:33:48;;;;;;;;;;;16.90;99.90;;;;;;5110324;28;19947;-73
2023/06/06 09:36:13;;;;;;;;;;;17.10;99.90;;;;;;5109837;28;19920;-73
2023/06/06 09:38:39;;;;;;;;;;;17.30;99.90;;;;;;5109663;28;19926;-73
2023/06/06 09:41:05;;;;;;;;;;;17.50;99.90;;;;;;5109234;28;20106;-72
2023/06/06 09:43:30;;;;;;;;;;;17.60;99.90;;;;;;5098130;28;19920;-73
2023/06/06 09:45:58;;;;;;;;;;;17.80;99.90;;;;;;5101889;28;19977;-73
2023/06/06 09:48:25;;;;;;;;;;;18.00;99.90;;;;;;5103126;28;20028;-73
2023/06/06 09:50:51;;;;;;;;;;;18.10;99.90;;;;;;5096546;28;19919;-73
2023/06/06 09:53:17;;;;;;;;;;;18.30;99.90;;;;;;5096665;28;20339;-73
2023/06/06 09:55:43;;;;;;;;;;;18.50;99.90;;;;;;5106868;28;19923;-73
2023/06/06 09:58:08;;;;;;;;;;;18.60;99.90;;;;;;5107714;28;19920;-73
2023/06/06 10:00:37;;;;;;;;;;;18.90;99.90;;;;;;5107804;28;19927;-73
2023/06/06 10:03:04;;;;;;;;;;;19.00;99.90;;;;;;5095021;28;19920;-73
2023/06/06 10:05:30;;;;;;;;;;;19.10;99.90;;;;;;5109836;28;19919;-73
2023/06/06 10:07:56;;;;;;;;;;;19.30;99.90;;;;;;5106639;28;19934;-73
2023/06/06 10:10:22;;;;;;;;;;;19.40;99.90;;;;;;5109790;28;19923;-73
2023/06/06 10:12:49;;;;;;;7.50;3.13;;;19.60;99.90;;;;;;5106137;28;19924;-73
2023/06/06 10:15:15;;;;;;;10.53;4.07;;;19.70;99.90;;;;;;5106166;28;20495;-73
2023/06/06 10:17:42;;;;;;;9.18;3.60;;;19.80;99.90;;;;;;5093565;28;20469;-73
2023/06/06 10:20:11;;;;;;;8.75;3.33;;;20.00;99.90;;;;;;5089666;28;20753;-73
2023/06/06 10:22:37;;;;;;;6.75;3.20;;;20.00;99.90;;;;;;5084056;28;20483;-73
2023/06/06 10:25:13;;;;;;;8.65;3.70;;;20.20;99.90;;;;;;5100677;28;20452;-73
2023/06/06 10:28:07;;;;;;;9.30;3.72;;;20.30;99.90;;;;;;5102689;28;20403;-73
2023/06/06 10:30:43;;;;;;;11.77;3.95;;;20.40;99.90;;;;;;5106829;28;20423;-73
2023/06/06 10:33:12;;;;;;;7.05;3.35;;;20.40;99.90;;;;;;5086125;28;20447;-73
2023/06/06 10:35:40;;;;;;;7.63;4.10;;;20.50;99.90;;;;;;5094449;28;20422;-73
2023/06/06 10:38:09;;;;;;;;;;;20.50;99.90;;;;;;5110590;28;20036;-73
2023/06/06 10:40:50;;;;;;;;;;;20.40;99.90;;;;;;5105555;28;19919;-73
2023/06/06 10:43:20;;;;;;;6.97;3.05;;;20.50;99.90;;;;;;5079698;28;20393;-73
2023/06/06 10:45:49;;;;;;;7.55;3.10;;;20.50;99.90;;;;;;5103317;28;20442;-73
2023/06/06 10:48:15;;;;;;;8.60;2.95;;;20.60;99.90;;;;;;5107455;28;20400;-73
2023/06/06 10:50:53;;;;;;;6.72;3.00;;;20.70;99.90;;;;;;5103397;28;20403;-73
2023/06/06 10:53:19;;;;;;;6.53;2.88;;;20.70;99.90;;;;;;5103626;28;20417;-73
2023/06/06 10:55:46;;;;;;;5.65;2.90;;;20.90;99.90;;;;;;5105254;28;20436;-73
2023/06/06 10:58:18;;;;;;;7.30;2.78;;;21.00;99.90;;;;;;5086154;28;20404;-73
2023/06/06 11:00:45;;;;;;;;;;;21.00;99.90;;;;;;5087797;28;20086;-73
2023/06/06 11:03:13;;;;;;;;;;;21.20;99.90;;;;;;5103990;28;19942;-73
2023/06/06 11:05:57;;;;;;;;;;;21.30;99.90;;;;;;5108533;28;20014;-73
2023/06/06 11:08:33;;;;;;;;;;;21.50;99.90;;;;;;5105634;28;19924;-73
2023/06/06 11:11:17;;;;;;;;;;;21.70;99.90;;;;;;5107275;28;19924;-73
2023/06/06 11:13:53;;;;;;;;;;;21.70;99.90;;;;;;5086806;28;19920;-73
2023/06/06 11:16:28;;;;;;;;;;;21.60;99.70;;;;;;5104857;28;19919;-73
2023/06/06 11:19:00;;;;;;;;;;;21.60;99.90;;;;;;5079879;28;19920;-73
2023/06/06 11:21:26;;;;;;;;;;;21.60;99.90;;;;;;5106298;28;20195;-73
2023/06/06 11:23:52;;;;;;;;;;;21.60;99.90;;;;;;5108072;28;20004;-73
2023/06/06 11:26:18;;;;;;;;;;;21.80;99.90;;;;;;5106053;28;19926;-73
2023/06/06 11:28:45;;;;;;;;;;;21.90;99.90;;;;;;5109333;28;19928;-73
2023/06/06 11:31:10;;;;;;;;;;;22.00;98.90;;;;;;5105694;28;20369;-73
2023/06/06 11:33:36;;;;;;;;;;;21.90;99.00;;;;;;5107547;28;19927;-73
2023/06/06 11:36:04;;;;;;;;;;;21.70;98.00;;;;;;5105329;28;20402;-73
2023/06/06 11:38:32;;;;;;;;;;;21.60;99.20;;;;;;5106543;28;19924;-73
2023/06/06 11:40:57;;;;;;;;;;;21.60;99.80;;;;;;5087513;28;19923;-73
2023/06/06 11:43:23;;;;;;;;;;;21.70;99.80;;;;;;5097420;28;19973;-73
2023/06/06 11:46:01;;;;;;;;;;;21.80;98.60;;;;;;5105303;28;20327;-73
2023/06/06 11:48:27;;;;;;;;;;;21.80;98.50;;;;;;5106204;28;20309;-73
2023/06/06 11:50:52;;;;;;;;;;;21.70;97.70;;;;;;5105812;28;19993;-73
2023/06/06 11:53:32;;;;;;;;;;;21.80;97.50;;;;;;5094543;28;20406;-73
2023/06/06 11:55:58;;;;;;;;;;;21.80;98.60;;;;;;5097079;28;19924;-73
2023/06/06 11:58:24;;;;;;;;;;;22.00;98.50;;;;;;5102952;28;19931;-73
2023/06/06 12:00:56;;;;;;;;;;;22.10;97.70;;;;;;5106750;28;20430;-73
2023/06/06 12:03:22;;;;;;;;;;;22.10;97.10;;;;;;5100887;28;19931;-73
2023/06/06 12:05:58;;;;;;;;;;;22.20;97.40;;;;;;5106921;28;19923;-73
2023/06/06 12:08:24;;;;;;;;;;;22.20;96.70;;;;;;5091484;28;19982;-73
2023/06/06 12:10:50;;;;;;;;;;;22.20;96.50;;;;;;5097279;28;19924;-73
2023/06/06 12:13:31;;;;;;;;;;;22.20;96.70;;;;;;5080993;28;20014;-72
2023/06/06 12:15:57;;;;;;;;;;;22.30;95.60;;;;;;5099857;28;19930;-73
2023/06/06 12:18:23;;;;;;;;;;;22.30;96.10;;;;;;5098437;28;19928;-73
2023/06/06 12:20:48;;;;;;;;;;;22.30;95.60;;;;;;5105667;28;19931;-73
2023/06/06 12:23:30;;;;;;;;;;;22.40;96.10;;;;;;5106265;28;20394;-73
2023/06/06 12:25:59;;;;;;;;;;;22.40;96.30;;;;;;5106267;28;19981;-73
2023/06/06 12:28:25;;;;;;;;;;;22.50;95.40;;;;;;5112071;28;19927;-73
2023/06/06 12:30:54;;;;;;;;;;;22.60;95.70;;;;;;5099062;28;19969;-73
2023/06/06 12:33:20;;;;;;;;;;;22.80;95.60;;;;;;5112297;27;19928;-73
2023/06/06 12:35:48;;;;;;;;;;;22.90;95.70;;;;;;5108551;28;19924;-73
2023/06/06 12:38:17;;;;;;;;;;;23.10;95.90;;;;;;5102490;28;19928;-73
2023/06/06 12:40:52;;;;;;;;;;;23.20;94.90;;;;;;5107547;28;19932;-73
2023/06/06 12:43:17;;;;;;;;;;;23.00;94.30;;;;;;5109518;28;20032;-72
2023/06/06 12:45:43;;;;;;;;;;;23.00;94.80;;;;;;5107204;28;19968;-73
2023/06/06 12:48:08;;;;;;;;;;;23.10;93.60;;;;;;5110162;28;20331;-74
2023/06/06 12:50:34;;;;;;;;;;;23.10;93.90;;;;;;5107371;28;19924;-73
2023/06/06 12:53:02;;;;;;;;;;;23.00;94.20;;;;;;5108788;28;19928;-74
2023/06/06 12:55:28;;;;;;;;;;;23.10;94.60;;;;;;5102847;28;19930;-73
2023/06/06 12:57:54;;;;;;;;;;;23.30;94.00;;;;;;5101509;28;19928;-73
2023/06/06 13:00:20;;;;;;;;;;;23.50;93.10;;;;;;5106843;28;19931;-73
2023/06/06 13:02:45;;;;;;;;;;;23.60;93.80;;;;;;5095392;28;20314;-73
2023/06/06 13:05:11;;;;;;;;;;;23.70;93.00;;;;;;5105773;28;20002;-73
2023/06/06 13:07:37;;;;;;;;;;;23.70;92.90;;;;;;5109529;28;19935;-73
2023/06/06 13:10:06;;;;;;;;;;;23.60;93.10;;;;;;5094705;28;20050;-73
2023/06/06 13:12:32;;;;;;;;;;;23.40;92.60;;;;;;5090443;28;20014;-73
2023/06/06 13:14:57;;;;;;;;;;;23.50;92.90;;;;;;5100685;28;20378;-73
2023/06/06 13:17:24;;;;;;;;;;;23.50;93.00;;;;;;5101992;28;19934;-73
2023/06/06 13:19:50;;;;;;;;;;;23.50;92.60;;;;;;5096396;28;19924;-73
2023/06/06 13:22:16;;;;;;;;;;;23.70;93.00;;;;;;5110011;28;20354;-73
2023/06/06 13:24:41;;;;;;;;;;;23.80;90.90;;;;;;5108320;28;19924;-73
2023/06/06 13:27:07;;;;;;;;;;;23.80;91.70;;;;;;5098926;28;19932;-73
2023/06/06 13:29:34;;;;;;;;;;;23.80;91.60;;;;;;5103652;28;19985;-73
2023/06/06 13:31:59;;;;;;;;;;;23.90;90.10;;;;;;5100942;28;19923;-73
2023/06/06 13:34:25;;;;;;;;;;;23.70;90.50;;;;;;5108244;28;20177;-73
2023/06/06 13:36:50;;;;;;;;;;;23.60;90.60;;;;;;5108184;28;19924;-73
2023/06/06 13:39:16;;;;;;;;;;;23.70;91.00;;;;;;5105884;28;19928;-73
2023/06/06 13:41:42;;;;;;;;;;;23.90;91.10;;;;;;5108639;28;19930;-73
2023/06/06 13:44:15;;;;;;;;;;;24.10;90.50;;;;;;5101432;28;19924;-73
2023/06/06 13:46:41;;;;;;;;;;;24.10;90.40;;;;;;5090215;28;19924;-73
2023/06/06 13:49:06;;;;;;;;;;;24.30;90.10;;;;;;5107879;28;20436;-73
2023/06/06 13:51:32;;;;;;;;;;;24.30;89.60;;;;;;5108382;28;19924;-73
2023/06/06 13:53:58;;;;;;;;;;;24.40;90.00;;;;;;5105980;28;19924;-73
2023/06/06 13:56:25;;;;;;;;;;;24.30;88.80;;;;;;5106118;28;20018;-73
2023/06/06 13:58:53;;;;;;;;;;;24.30;88.70;;;;;;5101693;28;19924;-73
2023/06/06 14:01:19;;;;;;;;;;;24.30;89.10;;;;;;5101790;28;19924;-73
2023/06/06 14:03:44;;;;;;;;;;;24.50;89.00;;;;;;5107837;28;20285;-74
2023/06/06 14:06:10;;;;;;;;;;;24.70;88.20;;;;;;5107333;28;20324;-73
2023/06/06 14:08:36;;;;;;;;;;;25.00;86.40;;;;;;5102028;28;20025;-73
2023/06/06 14:11:02;;;;;;;;;;;25.00;86.00;;;;;;5090080;28;20447;-73